Cherrytown, New York
Current Conditions -  °F | °C
As of 2:54 AM on Sunday 21 Dec 2014 (Local Time) from KMGJ Reporting Station
Overcast Overcast  
Wind Chill: 23°   Ceiling: 2200
Heat Index: 28°   Visibility: 10mi
Dew Point: 24°   Wind: 5mph
Humidity: 85%   Direction: 30°NNE
Pressure: 30.27"   Gusts: NA
Location:  41.7943°N, 74.3146°W
Report Text: KMGJ 210754Z AUTO 03004KT 10SM OVC022 M02/M04 A3027 RMK AO2 SLP253 T10221044 TSNO
Loading
Personal Weather Stations






























Interactive Weather Map New forecast layout! Learn more

10-Day Weather Forecast

Advertisements
Track Severe Weather on mobile